Terminal Aerodrome Forecast
Issued by NWS Sterling, VA

Home | Current Version | Previous Version | Text Only | Print | Product List | Glossary On
Versions: 1 2 3 4 5 6 7 8 9 10 11 12 13 14 15 16 17 18 19 20 21
031
FTUS41 KLWX 082332
TAFIAD
TAF
KIAD 082332Z 0900/1006 12006KT P6SM -RA OVC070
     FM090100 12006KT 5SM -RASN OVC050
     FM090300 12006KT 3SM -SNRA OVC035
     FM090500 10005KT 1SM -SN OVC008
     FM090900 06005KT 1/2SM SN OVC008
     FM091800 33005KT 1SM -SN OVC015=

USA.gov is the U.S. government's official web portal to all federal, state and local government web resources and services.